Time;durP1;ratioP1;P1;durP2;ratioP2;P2;SDS_P1;SDS_P2;PMS_P1;PMS_P2;Temp;Humidity;BMP_temperature;BMP_pressure;BME280_temperature;BME280_humidity;BME280_pressure;Samples;Min_cycle;Max_cycle;Signal;HPM_P1;HPM_P2
2023/04/10 00:00:08;;;;;;;1.67;1.57;;;7.90;85.80;;;;;;5059532;28;20233;-76
2023/04/10 00:02:36;;;;;;;2.07;1.87;;;7.90;85.30;;;;;;5056683;28;20185;-76
2023/04/10 00:05:02;;;;;;;1.57;1.50;;;7.90;85.00;;;;;;5062473;28;20175;-76
2023/04/10 00:07:27;;;;;;;2.27;2.10;;;7.80;84.90;;;;;;5056412;28;20191;-76
2023/04/10 00:09:53;;;;;;;1.90;1.80;;;7.90;84.80;;;;;;5061628;28;20630;-76
2023/04/10 00:12:19;;;;;;;1.53;1.40;;;7.90;85.00;;;;;;5059709;28;20219;-76
2023/04/10 00:14:45;;;;;;;2.27;2.10;;;7.90;84.70;;;;;;5061139;28;20175;-77
2023/04/10 00:17:11;;;;;;;1.40;1.40;;;7.90;83.70;;;;;;5061785;28;20187;-77
2023/04/10 00:19:36;;;;;;;1.37;1.37;;;8.00;83.40;;;;;;5060486;28;20179;-77
2023/04/10 00:22:03;;;;;;;2.27;1.50;;;8.00;83.40;;;;;;5059690;28;20180;-76
2023/04/10 00:24:29;;;;;;;1.23;1.23;;;8.00;82.40;;;;;;5063966;28;20563;-77
2023/04/10 00:26:56;;;;;;;1.10;1.10;;;8.00;82.20;;;;;;5053420;28;20187;-76
2023/04/10 00:29:22;;;;;;;1.50;1.50;;;8.00;81.90;;;;;;5059108;28;20190;-76
2023/04/10 00:31:48;;;;;;;1.30;1.30;;;8.00;81.70;;;;;;5054584;28;20212;-77
2023/04/10 00:34:14;;;;;;;1.37;1.33;;;8.00;81.10;;;;;;5069634;28;20190;-77
2023/04/10 00:36:40;;;;;;;1.30;1.20;;;8.00;80.40;;;;;;5060910;28;20255;-77
2023/04/10 00:39:06;;;;;;;1.47;1.30;;;8.00;79.60;;;;;;5062069;28;20171;-76
2023/04/10 00:41:32;;;;;;;1.37;1.20;;;8.00;79.00;;;;;;5060527;28;20179;-76
2023/04/10 00:43:58;;;;;;;1.17;1.17;;;8.00;78.20;;;;;;5064695;28;20286;-76
2023/04/10 00:46:24;;;;;;;1.07;1.07;;;8.00;77.10;;;;;;5056761;28;20188;-76
2023/04/10 00:48:52;;;;;;;0.93;0.93;;;8.00;76.50;;;;;;5054739;28;20330;-76
2023/04/10 00:51:21;;;;;;;0.90;0.90;;;7.90;76.10;;;;;;5053794;28;20286;-77
2023/04/10 00:53:51;;;;;;;0.93;0.93;;;8.00;76.10;;;;;;5062760;28;20203;-76
2023/04/10 00:56:20;;;;;;;0.90;0.90;;;8.00;75.70;;;;;;5050563;28;20786;-75
2023/04/10 00:58:46;;;;;;;1.00;1.00;;;8.00;75.60;;;;;;5053680;28;20193;-75
2023/04/10 01:01:12;;;;;;;1.00;1.00;;;8.00;76.10;;;;;;5052440;28;20179;-76
2023/04/10 01:03:39;;;;;;;1.10;1.10;;;8.00;76.10;;;;;;5055181;28;20190;-76
2023/04/10 01:06:08;;;;;;;0.87;0.87;;;8.00;76.20;;;;;;5054799;28;20183;-76
2023/04/10 01:08:56;;;;;;;1.10;1.00;;;8.10;76.40;;;;;;5064857;28;20202;-76
2023/04/10 01:11:57;;;;;;;0.90;0.90;;;8.10;76.60;;;;;;5066896;28;20211;-76
2023/04/10 01:14:45;;;;;;;1.27;1.27;;;8.20;77.20;;;;;;5063797;28;20174;-76
2023/04/10 01:17:45;;;;;;;1.07;0.90;;;8.20;78.30;;;;;;5088773;28;20192;-76
2023/04/10 01:20:15;;;;;;;1.30;1.30;;;8.20;78.90;;;;;;5038971;28;20188;-78
2023/04/10 01:23:00;;;;;;;1.27;1.17;;;8.30;79.90;;;;;;5032979;28;20839;-77
2023/04/10 01:25:39;;;;;;;1.20;1.10;;;8.30;80.20;;;;;;5029025;28;20192;-77
2023/04/10 01:28:42;;;;;;;1.50;1.40;;;8.30;80.60;;;;;;5048806;28;20505;-77
2023/04/10 01:31:13;;;;;;;1.43;1.33;;;8.30;81.50;;;;;;5044372;28;20219;-76
2023/04/10 01:33:45;;;;;;;1.60;1.50;;;8.30;81.90;;;;;;5027734;28;20184;-76
2023/04/10 01:36:12;;;;;;;1.70;1.60;;;8.30;82.40;;;;;;5049805;28;20191;-77
2023/04/10 01:38:42;;;;;;;1.50;1.17;;;8.20;83.30;;;;;;5042983;28;20754;-77
2023/04/10 01:41:08;;;;;;;1.37;1.30;;;8.20;83.60;;;;;;5047821;28;20188;-77
2023/04/10 01:43:34;;;;;;;1.17;1.17;;;8.20;83.70;;;;;;5046449;28;20216;-77
2023/04/10 01:46:02;;;;;;;1.33;1.33;;;8.10;84.20;;;;;;5045492;28;20196;-77
2023/04/10 01:48:29;;;;;;;1.27;1.23;;;8.20;84.10;;;;;;5044873;28;20187;-77
2023/04/10 01:50:55;;;;;;;1.20;1.20;;;8.20;84.20;;;;;;5046181;28;20587;-77
2023/04/10 01:53:22;;;;;;;1.27;1.27;;;8.20;83.90;;;;;;5041032;28;20607;-77
2023/04/10 01:55:49;;;;;;;1.43;1.33;;;8.30;83.70;;;;;;5041735;28;20177;-77
2023/04/10 01:58:15;;;;;;;1.37;1.27;;;8.30;83.60;;;;;;5064716;28;20175;-77
2023/04/10 02:00:42;;;;;;;1.30;1.30;;;8.30;83.60;;;;;;5061955;28;20179;-77
2023/04/10 02:03:08;;;;;;;1.43;1.30;;;8.40;83.60;;;;;;5062171;28;20178;-77
2023/04/10 02:05:48;;;;;;;1.37;1.27;;;8.40;83.60;;;;;;5061441;28;20171;-78
2023/04/10 02:08:42;;;;;;;1.30;1.27;;;8.40;83.50;;;;;;5062954;28;20193;-76
2023/04/10 02:11:35;;;;;;;1.30;1.03;;;8.40;83.00;;;;;;5070445;28;20219;-77
2023/04/10 02:14:06;;;;;;;1.60;1.50;;;8.40;82.80;;;;;;5078845;28;20211;-76
2023/04/10 02:16:32;;;;;;;1.97;1.50;;;8.40;82.60;;;;;;5082302;28;20195;-76
2023/04/10 02:18:59;;;;;;;1.43;1.10;;;8.40;83.10;;;;;;5081954;28;20263;-76
2023/04/10 02:21:26;;;;;;;1.33;1.23;;;8.30;83.40;;;;;;5069994;28;20187;-76
2023/04/10 02:23:52;;;;;;;1.27;1.17;;;8.30;82.80;;;;;;5069757;28;20682;-76
2023/04/10 02:26:17;;;;;;;1.97;1.40;;;8.20;81.70;;;;;;5070454;28;20191;-76
2023/04/10 02:28:43;;;;;;;1.20;1.20;;;8.20;80.80;;;;;;5075216;28;20221;-76
2023/04/10 02:31:09;;;;;;;1.20;1.13;;;8.10;80.50;;;;;;5063892;28;20218;-77
2023/04/10 02:33:34;;;;;;;1.00;1.00;;;8.10;80.20;;;;;;5077371;28;20968;-75
2023/04/10 02:36:00;;;;;;;0.87;0.87;;;8.10;80.60;;;;;;5069660;28;20202;-75
2023/04/10 02:38:26;;;;;;;1.40;1.30;;;8.10;80.70;;;;;;5071266;28;20298;-75
2023/04/10 02:40:52;;;;;;;1.33;1.10;;;8.20;81.10;;;;;;5069628;28;20261;-76
2023/04/10 02:43:17;;;;;;;2.47;1.27;;;8.20;80.90;;;;;;5066814;28;20278;-74
2023/04/10 02:45:43;;;;;;;1.47;1.37;;;8.20;80.80;;;;;;5066896;28;20696;-75
2023/04/10 02:48:10;;;;;;;1.03;1.03;;;8.20;80.80;;;;;;5072213;28;20209;-76
2023/04/10 02:50:35;;;;;;;1.13;0.90;;;8.20;81.00;;;;;;5072245;28;20200;-76
2023/04/10 02:53:01;;;;;;;0.83;0.83;;;8.20;81.10;;;;;;5064864;28;20202;-76
2023/04/10 02:55:27;;;;;;;1.33;1.27;;;8.20;81.20;;;;;;5059203;28;20237;-76
2023/04/10 02:57:52;;;;;;;1.27;1.27;;;8.20;81.30;;;;;;5060373;28;20198;-76
2023/04/10 03:00:18;;;;;;;1.70;1.60;;;8.20;81.50;;;;;;5062541;28;20187;-76
2023/04/10 03:02:44;;;;;;;1.00;1.00;;;8.20;81.70;;;;;;5063115;28;20267;-76
2023/04/10 03:05:10;;;;;;;1.10;1.10;;;8.20;81.80;;;;;;5060984;28;21157;-77
2023/04/10 03:07:36;;;;;;;1.20;1.10;;;8.20;81.90;;;;;;5059316;28;20188;-77
2023/04/10 03:10:02;;;;;;;1.23;1.23;;;8.10;82.20;;;;;;5061493;28;20179;-76
2023/04/10 03:12:27;;;;;;;1.00;0.97;;;8.10;82.30;;;;;;5068726;28;20261;-76
2023/04/10 03:14:53;;;;;;;1.37;1.10;;;8.10;82.60;;;;;;5069370;28;20254;-76
2023/04/10 03:17:19;;;;;;;1.17;1.17;;;8.10;82.70;;;;;;5058686;28;20202;-75
2023/04/10 03:19:45;;;;;;;2.33;1.93;;;8.10;83.20;;;;;;5061150;28;20313;-75
2023/04/10 03:22:10;;;;;;;1.87;1.70;;;8.00;83.70;;;;;;5056432;28;20187;-75
2023/04/10 03:24:39;;;;;;;1.70;1.60;;;8.00;83.80;;;;;;5056641;28;20184;-75
2023/04/10 03:27:05;;;;;;;1.30;1.30;;;8.00;83.90;;;;;;5054285;28;20588;-75
2023/04/10 03:29:31;;;;;;;1.27;1.27;;;7.90;84.10;;;;;;5051305;28;20199;-77
2023/04/10 03:31:56;;;;;;;1.60;1.50;;;7.90;84.20;;;;;;5048230;28;20211;-76
2023/04/10 03:34:22;;;;;;;1.90;1.50;;;7.90;84.50;;;;;;5058373;28;20212;-76
2023/04/10 03:36:48;;;;;;;2.00;1.50;;;7.80;84.50;;;;;;5052027;28;20254;-76
2023/04/10 03:39:13;;;;;;;1.20;1.20;;;7.80;85.00;;;;;;5057631;28;20270;-76
2023/04/10 03:41:39;;;;;;;1.97;1.60;;;7.70;85.10;;;;;;5054755;28;20180;-76
2023/04/10 03:44:05;;;;;;;1.97;1.87;;;7.70;85.20;;;;;;5056955;28;20575;-76
2023/04/10 03:46:30;;;;;;;1.47;1.33;;;7.60;85.20;;;;;;5058445;28;20199;-76
2023/04/10 03:48:56;;;;;;;1.70;1.47;;;7.50;85.40;;;;;;5056975;28;20626;-77
2023/04/10 03:51:23;;;;;;;1.80;1.70;;;7.40;86.00;;;;;;5068487;28;20246;-77
2023/04/10 03:53:50;;;;;;;1.47;1.47;;;7.40;86.30;;;;;;5077040;28;20171;-77
2023/04/10 03:56:16;;;;;;;1.90;1.80;;;7.40;86.40;;;;;;5067547;28;20180;-77
2023/04/10 03:58:41;;;;;;;1.60;1.50;;;7.40;86.50;;;;;;5076225;28;20270;-76
2023/04/10 04:01:07;;;;;;;2.10;2.00;;;7.40;86.50;;;;;;5065354;28;20179;-77
2023/04/10 04:03:33;;;;;;;1.70;1.67;;;7.40;86.80;;;;;;5063219;28;20210;-76
2023/04/10 04:05:59;;;;;;;1.87;1.73;;;7.40;86.70;;;;;;5072109;28;20179;-77
2023/04/10 04:08:24;;;;;;;2.40;1.80;;;7.40;86.70;;;;;;5075191;28;20182;-76
2023/04/10 04:10:50;;;;;;;2.03;1.83;;;7.40;86.90;;;;;;5072530;28;20194;-76
2023/04/10 04:13:16;;;;;;;1.90;1.80;;;7.50;86.90;;;;;;5066826;28;20194;-76
2023/04/10 04:15:41;;;;;;;1.70;1.60;;;7.50;87.10;;;;;;5063269;28;20200;-77
2023/04/10 04:18:08;;;;;;;3.17;2.30;;;7.50;87.10;;;;;;5068633;28;20179;-76
2023/04/10 04:20:33;;;;;;;2.53;2.43;;;7.50;87.30;;;;;;5066275;28;20183;-76
2023/04/10 04:22:59;;;;;;;2.20;2.10;;;7.50;87.70;;;;;;5065127;28;20183;-76
2023/04/10 04:25:25;;;;;;;2.27;2.07;;;7.50;87.80;;;;;;5064752;28;20179;-77
2023/04/10 04:27:50;;;;;;;2.40;2.20;;;7.50;87.90;;;;;;5062319;28;20198;-76
2023/04/10 04:30:16;;;;;;;1.97;1.87;;;7.60;88.40;;;;;;5062131;28;20180;-76
2023/04/10 04:32:42;;;;;;;2.20;2.00;;;7.60;88.50;;;;;;5064430;28;20217;-76
2023/04/10 04:35:08;;;;;;;9.27;2.37;;;7.60;88.60;;;;;;5060624;28;20183;-77
2023/04/10 04:37:34;;;;;;;2.20;2.00;;;7.70;88.40;;;;;;5067163;28;20183;-76
2023/04/10 04:40:00;;;;;;;2.93;2.40;;;7.80;88.50;;;;;;5066384;28;20196;-76
2023/04/10 04:42:26;;;;;;;2.97;2.40;;;7.80;88.30;;;;;;5066653;28;20189;-76
2023/04/10 04:44:52;;;;;;;2.00;1.90;;;7.90;88.10;;;;;;5072787;28;20187;-76
2023/04/10 04:47:17;;;;;;;3.37;2.00;;;7.90;87.90;;;;;;5073708;28;20192;-77
2023/04/10 04:49:43;;;;;;;2.00;1.90;;;7.90;88.00;;;;;;5067973;28;20179;-77
2023/04/10 04:52:08;;;;;;;2.33;2.07;;;8.00;87.70;;;;;;5071320;28;20207;-76
2023/04/10 04:54:34;;;;;;;3.03;2.63;;;8.00;87.60;;;;;;5066002;28;20182;-76
2023/04/10 04:57:00;;;;;;;2.23;2.03;;;8.00;87.80;;;;;;5068566;28;20188;-77
2023/04/10 04:59:26;;;;;;;2.13;2.03;;;8.00;87.70;;;;;;5065531;28;20172;-77
2023/04/10 05:01:52;;;;;;;2.50;2.30;;;8.10;87.40;;;;;;5067392;28;20184;-76
2023/04/10 05:04:19;;;;;;;2.43;1.97;;;8.00;87.10;;;;;;5064268;28;20183;-76
2023/04/10 05:06:45;;;;;;;2.23;2.13;;;8.00;86.70;;;;;;5063251;28;20452;-77
2023/04/10 05:09:10;;;;;;;3.07;1.97;;;8.10;86.60;;;;;;5068202;28;20187;-76
2023/04/10 05:11:36;;;;;;;1.83;1.83;;;8.10;86.60;;;;;;5066486;28;20238;-77
2023/04/10 05:14:02;;;;;;;2.17;1.97;;;8.10;86.30;;;;;;5062990;28;20182;-77
2023/04/10 05:16:27;;;;;;;2.70;2.50;;;8.10;86.20;;;;;;5064271;28;20191;-77
2023/04/10 05:18:54;;;;;;;2.07;1.97;;;8.10;86.30;;;;;;5062785;28;20186;-76
2023/04/10 05:21:19;;;;;;;4.33;2.87;;;8.10;86.10;;;;;;5068654;28;20198;-75
2023/04/10 05:23:45;;;;;;;1.90;1.60;;;8.10;85.60;;;;;;5065664;28;21734;-76
2023/04/10 05:26:11;;;;;;;2.63;2.37;;;8.20;85.70;;;;;;5065226;28;20178;-77
2023/04/10 05:28:36;;;;;;;1.87;1.73;;;8.10;85.30;;;;;;5067861;28;20183;-77
2023/04/10 05:31:02;;;;;;;2.00;1.80;;;8.10;85.20;;;;;;5063750;28;20175;-76
2023/04/10 05:33:28;;;;;;;1.47;1.43;;;8.20;84.90;;;;;;5062787;28;20190;-76
2023/04/10 05:35:55;;;;;;;2.27;2.07;;;8.20;85.10;;;;;;5059224;28;20241;-76
2023/04/10 05:38:21;;;;;;;1.27;1.27;;;8.20;84.60;;;;;;5057734;28;20203;-76
2023/04/10 05:40:47;;;;;;;2.57;1.47;;;8.30;83.80;;;;;;5060271;28;20187;-76
2023/04/10 05:43:12;;;;;;;1.53;1.47;;;8.30;83.50;;;;;;5062260;28;20179;-76
2023/04/10 05:45:39;;;;;;;6.70;1.87;;;8.40;83.20;;;;;;5061782;28;20243;-77
2023/04/10 05:48:05;;;;;;;2.07;1.97;;;8.40;83.10;;;;;;5058408;28;20634;-77
2023/04/10 05:50:30;;;;;;;1.03;1.03;;;8.50;83.20;;;;;;5049571;28;20200;-76
2023/04/10 05:52:56;;;;;;;1.27;1.27;;;8.50;83.10;;;;;;5048930;28;20199;-75
2023/04/10 05:55:22;;;;;;;1.33;1.20;;;8.60;82.80;;;;;;5049515;28;20267;-75
2023/04/10 05:57:50;;;;;;;1.70;1.60;;;8.70;82.50;;;;;;5050948;28;20820;-75
2023/04/10 06:00:16;;;;;;;1.40;1.33;;;8.80;82.10;;;;;;5050697;28;20199;-75
2023/04/10 06:02:42;;;;;;;5.87;1.73;;;8.90;81.90;;;;;;5047538;28;20615;-75
2023/04/10 06:05:08;;;;;;;3.50;2.20;;;9.00;81.80;;;;;;5047910;28;20262;-76
2023/04/10 06:07:34;;;;;;;3.63;2.13;;;9.10;81.70;;;;;;5042818;28;20234;-76
2023/04/10 06:09:59;;;;;;;2.03;1.93;;;9.20;81.20;;;;;;5053328;28;20221;-75
2023/04/10 06:12:25;;;;;;;1.90;1.80;;;9.20;80.90;;;;;;5050180;28;20610;-75
2023/04/10 06:14:51;;;;;;;2.30;2.20;;;9.30;81.00;;;;;;5055000;28;20296;-75
2023/04/10 06:17:16;;;;;;;1.97;1.87;;;9.30;81.10;;;;;;5050923;28;20198;-75
2023/04/10 06:19:42;;;;;;;3.37;2.40;;;9.40;80.90;;;;;;5053744;28;20841;-74
2023/04/10 06:22:07;;;;;;;2.50;2.30;;;9.50;80.50;;;;;;5054774;28;20174;-74
2023/04/10 06:24:33;;;;;;;2.13;2.03;;;9.50;80.60;;;;;;5056902;28;20178;-73
2023/04/10 06:26:59;;;;;;;2.90;2.37;;;9.60;80.10;;;;;;5049242;28;20194;-73
2023/04/10 06:29:25;;;;;;;4.30;2.33;;;9.70;79.90;;;;;;5057879;28;20187;-74
2023/04/10 06:31:50;;;;;;;2.43;2.33;;;9.80;80.00;;;;;;5050880;28;20195;-74
2023/04/10 06:34:16;;;;;;;2.43;2.30;;;9.90;79.90;;;;;;5054422;28;20179;-75
2023/04/10 06:36:42;;;;;;;2.90;2.67;;;10.00;79.80;;;;;;5057601;28;20212;-75
2023/04/10 06:39:07;;;;;;;3.47;2.13;;;10.10;79.60;;;;;;5053238;28;20689;-74
2023/04/10 06:41:33;;;;;;;2.72;2.55;;;10.20;78.50;;;;;;5055413;28;20180;-79
2023/04/10 06:43:59;;;;;;;3.07;2.73;;;10.20;78.10;;;;;;5054857;28;20218;-74
2023/04/10 06:46:26;;;;;;;2.10;2.00;;;10.40;78.40;;;;;;5056957;28;20614;-73
2023/04/10 06:48:52;;;;;;;4.07;2.80;;;10.40;78.30;;;;;;5053873;28;20187;-75
2023/04/10 06:51:18;;;;;;;2.83;2.58;;;10.60;78.20;;;;;;5055745;28;20622;-75
2023/04/10 06:53:43;;;;;;;2.90;2.73;;;10.70;77.40;;;;;;5055264;28;20241;-75
2023/04/10 06:56:09;;;;;;;2.83;2.47;;;10.80;77.50;;;;;;5051727;28;20571;-75
2023/04/10 06:58:35;;;;;;;5.38;3.22;;;10.90;76.60;;;;;;5049553;28;20194;-74
2023/04/10 07:01:04;;;;;;;2.63;2.38;;;11.00;76.70;;;;;;5053596;28;20186;-75
2023/04/10 07:03:31;;;;;;;3.55;3.25;;;11.00;76.80;;;;;;5055561;28;20176;-76
2023/04/10 07:05:57;;;;;;;2.75;2.45;;;11.10;76.40;;;;;;5053926;28;20184;-79
2023/04/10 07:08:23;;;;;;;3.38;3.08;;;11.20;76.30;;;;;;5055108;28;20183;-75
2023/04/10 07:10:48;;;;;;;4.68;2.95;;;11.20;74.30;;;;;;5050476;28;20184;-74
2023/04/10 07:13:14;;;;;;;3.53;3.08;;;11.10;74.30;;;;;;5050412;28;20202;-75
2023/04/10 07:15:41;;;;;;;2.92;2.72;;;11.00;74.40;;;;;;5053878;28;20180;-75
2023/04/10 07:18:07;;;;;;;3.25;2.85;;;11.00;75.10;;;;;;5045934;28;20215;-75
2023/04/10 07:20:34;;;;;;;3.00;2.85;;;10.90;75.90;;;;;;5055589;28;20182;-76
2023/04/10 07:23:01;;;;;;;2.97;2.75;;;10.90;75.30;;;;;;5055474;28;20187;-75
2023/04/10 07:25:27;;;;;;;3.08;2.88;;;10.70;75.00;;;;;;5053149;28;20192;-74
2023/04/10 07:27:54;;;;;;;3.00;2.83;;;10.70;75.40;;;;;;5052542;28;20538;-77
2023/04/10 07:30:20;;;;;;;2.53;2.38;;;10.60;75.80;;;;;;5055558;28;20179;-76
2023/04/10 07:32:46;;;;;;;2.67;2.47;;;10.70;75.80;;;;;;5051677;28;20207;-76
2023/04/10 07:35:12;;;;;;;3.33;3.05;;;10.70;75.70;;;;;;5055698;28;20186;-75
2023/04/10 07:37:38;;;;;;;3.17;2.70;;;10.70;75.70;;;;;;5056824;28;20680;-76
2023/04/10 07:40:06;;;;;;;3.13;2.92;;;10.70;75.80;;;;;;5052631;28;20172;-80
2023/04/10 07:42:31;;;;;;;3.75;3.28;;;10.70;75.60;;;;;;5047800;28;20184;-79
2023/04/10 07:44:57;;;;;;;3.20;2.90;;;10.70;75.50;;;;;;5051264;28;20205;-78
2023/04/10 07:47:23;;;;;;;3.58;3.20;;;10.70;75.50;;;;;;5051616;28;20245;-78
2023/04/10 07:49:48;;;;;;;3.70;3.22;;;10.60;75.90;;;;;;5084131;28;20187;-76
2023/04/10 07:52:14;;;;;;;3.78;3.33;;;10.70;76.00;;;;;;5049362;28;20215;-81
2023/04/10 07:54:40;;;;;;;3.30;3.05;;;10.80;75.20;;;;;;5049691;28;20187;-77
2023/04/10 07:57:05;;;;;;;4.82;3.85;;;10.90;75.20;;;;;;5054806;28;20180;-77
2023/04/10 07:59:31;;;;;;;4.55;2.97;;;11.00;75.40;;;;;;5051891;28;20267;-76
2023/04/10 08:01:56;;;;;;;3.75;3.45;;;11.10;74.90;;;;;;5051815;28;20194;-75
2023/04/10 08:04:22;;;;;;;4.15;3.40;;;11.20;74.30;;;;;;5054203;28;20184;-75
2023/04/10 08:06:48;;;;;;;7.53;3.45;;;11.40;74.30;;;;;;5049287;28;20690;-77
2023/04/10 08:09:14;;;;;;;3.60;3.30;;;11.50;74.40;;;;;;5050613;28;20202;-76
2023/04/10 08:11:40;;;;;;;3.38;3.08;;;11.60;74.00;;;;;;5047450;28;20230;-76
2023/04/10 08:14:05;;;;;;;3.60;3.40;;;11.70;73.90;;;;;;5050907;28;20259;-79
2023/04/10 08:16:34;;;;;;;3.85;3.33;;;11.70;74.00;;;;;;5053300;28;20651;-77
2023/04/10 08:19:00;;;;;;;2.92;2.55;;;11.60;73.10;;;;;;5049860;28;20219;-78
2023/04/10 08:21:28;;;;;;;3.33;3.05;;;11.50;72.80;;;;;;5049810;28;20263;-73
2023/04/10 08:23:58;;;;;;;2.85;2.63;;;11.50;73.60;;;;;;5050800;28;20188;-75
2023/04/10 08:26:25;;;;;;;2.88;2.67;;;11.60;73.60;;;;;;5050636;28;20594;-76
2023/04/10 08:28:52;;;;;;;4.63;3.20;;;11.70;73.30;;;;;;5049323;28;20622;-75
2023/04/10 08:31:20;;;;;;;3.08;2.88;;;11.80;73.00;;;;;;5050634;28;20563;-74
2023/04/10 08:33:45;;;;;;;3.67;3.38;;;11.70;73.70;;;;;;5051538;28;20183;-76
2023/04/10 08:36:14;;;;;;;4.20;3.00;;;11.80;73.30;;;;;;5048747;28;20187;-74
2023/04/10 08:38:40;;;;;;;3.50;3.22;;;11.90;73.40;;;;;;5052863;28;20186;-74
2023/04/10 08:41:08;;;;;;;4.00;3.28;;;12.00;72.70;;;;;;5051854;28;20189;-76
2023/04/10 08:43:34;;;;;;;3.65;3.35;;;12.20;72.70;;;;;;5044474;28;20215;-75
2023/04/10 08:46:00;;;;;;;3.63;2.72;;;12.20;72.70;;;;;;5050984;28;20581;-76
2023/04/10 08:48:34;;;;;;;5.85;3.30;;;12.20;72.20;;;;;;5046237;28;20195;-75
2023/04/10 08:51:02;;;;;;;3.08;2.88;;;12.30;72.40;;;;;;5054051;28;20705;-75
2023/04/10 08:53:30;;;;;;;5.43;3.55;;;12.40;72.20;;;;;;5051575;28;20191;-75
2023/04/10 08:55:57;;;;;;;4.95;3.30;;;12.40;71.30;;;;;;5053644;28;20546;-75
2023/04/10 08:58:23;;;;;;;3.88;3.30;;;12.20;71.20;;;;;;5050318;28;20640;-74
2023/04/10 09:00:49;;;;;;;3.78;3.47;;;12.00;71.70;;;;;;5053225;28;20179;-75
2023/04/10 09:03:16;;;;;;;3.28;2.97;;;12.00;72.70;;;;;;5052385;28;20332;-74
2023/04/10 09:05:41;;;;;;;4.20;3.72;;;12.00;72.60;;;;;;5054852;28;20196;-75
2023/04/10 09:08:09;;;;;;;3.85;3.53;;;11.90;71.90;;;;;;5052860;28;20175;-75
2023/04/10 09:10:35;;;;;;;3.17;2.97;;;11.90;72.20;;;;;;5052910;28;20186;-75
2023/04/10 09:13:01;;;;;;;3.97;3.42;;;11.90;73.40;;;;;;5059308;28;20203;-75
2023/04/10 09:15:27;;;;;;;3.38;3.08;;;12.00;72.50;;;;;;5054235;28;20261;-75
2023/04/10 09:17:59;;;;;;;4.47;2.92;;;12.00;72.30;;;;;;5052938;28;20182;-75
2023/04/10 09:20:27;;;;;;;3.28;3.00;;;12.00;72.50;;;;;;5055896;28;20210;-74
2023/04/10 09:22:53;;;;;;;3.08;2.88;;;12.00;72.40;;;;;;5053018;28;20187;-74
2023/04/10 09:25:38;;;;;;;3.25;2.92;;;12.00;72.40;;;;;;5058532;28;20591;-75
2023/04/10 09:28:08;;;;;;;3.00;2.80;;;12.10;71.20;;;;;;5055593;28;20653;-74
2023/04/10 09:30:39;;;;;;;2.75;2.55;;;12.10;70.40;;;;;;5051979;28;20195;-75
2023/04/10 09:33:22;;;;;;;2.42;2.33;;;11.90;69.20;;;;;;5053845;28;20207;-75
2023/04/10 09:35:48;;;;;;;3.10;2.55;;;11.80;70.00;;;;;;5051637;28;20187;-75
2023/04/10 09:38:19;;;;;;;3.47;3.17;;;11.80;70.60;;;;;;5053927;28;20187;-74
2023/04/10 09:40:47;;;;;;;3.47;3.17;;;11.90;70.80;;;;;;5056497;28;20179;-74
2023/04/10 09:43:30;;;;;;;2.50;2.35;;;12.10;70.80;;;;;;5052328;28;20172;-74
2023/04/10 09:45:56;;;;;;;3.00;2.80;;;12.20;70.50;;;;;;5053754;28;20182;-74
2023/04/10 09:48:23;;;;;;;3.03;2.88;;;12.30;70.50;;;;;;5062341;28;20237;-74
2023/04/10 09:50:50;;;;;;;2.75;2.55;;;12.50;70.00;;;;;;5056870;28;20176;-76
2023/04/10 09:53:20;;;;;;;2.60;2.35;;;12.40;68.70;;;;;;5052721;28;20211;-74
2023/04/10 09:55:47;;;;;;;3.00;2.72;;;12.40;69.60;;;;;;5050591;28;20271;-75
2023/04/10 09:58:14;;;;;;;2.53;2.40;;;12.40;69.30;;;;;;5054539;28;20286;-74
2023/04/10 10:00:45;;;;;;;2.88;2.67;;;12.40;69.00;;;;;;5061744;28;20614;-75
2023/04/10 10:03:13;;;;;;;2.47;2.33;;;12.30;68.80;;;;;;5056636;28;20187;-74
2023/04/10 10:05:40;;;;;;;2.45;2.33;;;12.30;68.70;;;;;;5057288;28;20172;-74
2023/04/10 10:08:09;;;;;;;3.42;2.47;;;12.50;68.40;;;;;;5061148;28;20190;-74
2023/04/10 10:10:44;;;;;;;2.45;2.25;;;12.80;68.50;;;;;;5057572;28;20190;-74
2023/04/10 10:13:37;;;;;;;2.25;2.08;;;13.00;67.50;;;;;;5055731;28;20617;-74
2023/04/10 10:16:05;;;;;;;2.78;2.58;;;13.30;67.30;;;;;;5039016;28;20200;-74
2023/04/10 10:18:43;;;;;;;2.03;1.92;;;13.40;66.70;;;;;;5034199;28;20275;-76
2023/04/10 10:21:09;;;;;;;3.30;3.00;;;13.30;66.00;;;;;;5035650;28;20191;-74
2023/04/10 10:23:36;;;;;;;2.65;2.53;;;13.00;65.70;;;;;;5034575;28;20186;-76
2023/04/10 10:26:05;;;;;;;2.88;2.58;;;12.70;65.50;;;;;;5030400;28;20241;-75
2023/04/10 10:28:33;;;;;;;3.67;2.65;;;12.40;66.30;;;;;;5015182;28;20180;-75
2023/04/10 10:31:01;;;;;;;3.17;2.97;;;12.30;67.90;;;;;;5019989;28;20233;-75
2023/04/10 10:33:28;;;;;;;2.67;2.38;;;12.40;68.40;;;;;;5034531;28;20223;-75
2023/04/10 10:35:59;;;;;;;2.47;2.33;;;12.40;67.30;;;;;;5033233;28;20675;-75
2023/04/10 10:38:26;;;;;;;3.13;2.78;;;12.20;67.60;;;;;;5032796;28;20195;-75
2023/04/10 10:41:17;;;;;;;2.30;2.17;;;12.20;68.00;;;;;;5032098;28;20656;-75
2023/04/10 10:44:00;;;;;;;3.35;2.50;;;12.40;68.10;;;;;;5030179;28;20184;-75
2023/04/10 10:46:42;;;;;;;3.53;2.35;;;12.60;68.30;;;;;;5034442;28;20187;-74
2023/04/10 10:49:07;;;;;;;3.03;2.78;;;12.90;67.10;;;;;;5035539;28;20279;-74
2023/04/10 10:51:51;;;;;;;3.25;3.05;;;13.00;66.90;;;;;;5035381;28;20286;-76
2023/04/10 10:54:37;;;;;;;2.22;2.13;;;12.90;67.00;;;;;;5057031;28;20185;-76
2023/04/10 10:57:07;;;;;;;4.30;2.38;;;12.90;67.80;;;;;;5055215;28;20642;-74
2023/04/10 10:59:42;;;;;;;2.13;2.13;;;13.00;68.30;;;;;;5056454;28;20175;-74
2023/04/10 11:02:16;;;;;;;3.17;2.97;;;13.10;67.60;;;;;;5060793;28;20234;-76
2023/04/10 11:04:46;;;;;;;2.58;2.45;;;13.20;66.80;;;;;;5057285;28;20175;-75
2023/04/10 11:07:12;;;;;;;2.67;2.53;;;13.40;66.40;;;;;;5054758;28;20187;-76
2023/04/10 11:09:45;;;;;;;2.90;2.70;;;13.50;66.00;;;;;;5055933;28;20229;-74
2023/04/10 11:12:10;;;;;;;2.50;2.40;;;13.80;65.90;;;;;;5058988;28;20202;-75
2023/04/10 11:14:37;;;;;;;2.20;2.10;;;14.60;65.30;;;;;;5060714;28;20175;-75
2023/04/10 11:17:03;;;;;;;2.40;2.20;;;15.60;64.10;;;;;;5057142;28;20176;-75
2023/04/10 11:19:28;;;;;;;2.53;2.42;;;16.90;61.70;;;;;;5054848;28;20731;-75
2023/04/10 11:22:06;;;;;;;2.80;2.63;;;18.10;59.10;;;;;;5056813;28;20696;-75
2023/04/10 11:24:51;;;;;;;3.22;2.97;;;19.40;56.60;;;;;;5056853;28;20218;-75
2023/04/10 11:27:50;;;;;;;3.20;3.00;;;20.00;54.80;;;;;;5050922;28;20679;-75
2023/04/10 11:30:33;;;;;;;3.42;3.22;;;20.40;54.30;;;;;;5057285;28;20179;-75
2023/04/10 11:33:00;;;;;;;4.25;3.83;;;20.10;54.00;;;;;;5056414;28;20199;-75
2023/04/10 11:35:27;;;;;;;3.90;3.63;;;19.50;54.40;;;;;;5054602;28;20214;-75
2023/04/10 11:38:08;;;;;;;3.72;3.42;;;18.70;55.70;;;;;;5055803;28;20282;-75
2023/04/10 11:40:33;;;;;;;3.35;3.17;;;18.10;56.70;;;;;;5055075;28;20191;-75
2023/04/10 11:43:14;;;;;;;3.97;3.78;;;17.60;57.50;;;;;;5057621;28;20188;-75
2023/04/10 11:45:40;;;;;;;3.45;3.25;;;17.00;58.90;;;;;;5060134;28;20201;-75
2023/04/10 11:48:07;;;;;;;3.28;3.08;;;16.70;59.80;;;;;;5054128;28;20191;-75
2023/04/10 11:50:34;;;;;;;3.53;3.30;;;16.80;59.70;;;;;;5058783;28;20179;-76
2023/04/10 11:53:00;;;;;;;6.70;2.95;;;17.30;59.60;;;;;;5053825;28;20231;-75
2023/04/10 11:55:38;;;;;;;3.42;3.22;;;17.90;58.40;;;;;;5053748;28;20696;-74
2023/04/10 11:58:04;;;;;;;3.25;3.05;;;18.40;57.10;;;;;;5059462;28;20209;-75
2023/04/10 12:00:29;;;;;;;4.10;3.70;;;18.70;56.50;;;;;;5053020;28;20210;-75
2023/04/10 12:02:55;;;;;;;3.45;3.28;;;18.50;56.50;;;;;;5054558;28;20187;-74
2023/04/10 12:05:21;;;;;;;3.22;3.05;;;18.20;57.00;;;;;;5061409;28;20175;-75
2023/04/10 12:07:49;;;;;;;3.03;2.90;;;18.00;56.50;;;;;;5056471;28;20198;-75
2023/04/10 12:10:14;;;;;;;3.28;2.95;;;17.90;57.30;;;;;;5056790;28;20261;-75
2023/04/10 12:12:40;;;;;;;3.33;3.15;;;17.60;57.50;;;;;;5057937;28;20298;-75
2023/04/10 12:15:28;;;;;;;2.70;2.60;;;17.30;57.90;;;;;;5054479;28;20179;-75
2023/04/10 12:17:55;;;;;;;3.17;3.08;;;17.00;58.90;;;;;;5059154;28;20589;-75
2023/04/10 12:20:25;;;;;;;2.90;2.80;;;16.70;60.40;;;;;;5060516;28;20231;-74
2023/04/10 12:22:51;;;;;;;3.45;3.25;;;16.50;60.30;;;;;;5051740;28;20664;-75
2023/04/10 12:25:20;;;;;;;5.00;3.58;;;16.20;62.30;;;;;;5058360;28;20183;-74
2023/04/10 12:27:49;;;;;;;2.78;2.67;;;15.50;66.60;;;;;;5053167;28;20728;-74
2023/04/10 12:30:15;;;;;;;2.42;2.30;;;15.00;68.80;;;;;;5052954;28;20195;-75
2023/04/10 12:32:49;;;;;;;2.60;2.50;;;14.60;70.90;;;;;;5058092;28;20208;-75
2023/04/10 12:35:15;;;;;;;2.88;2.70;;;14.10;72.40;;;;;;5055961;28;20191;-75
2023/04/10 12:37:51;;;;;;;4.78;3.25;;;13.70;73.50;;;;;;5058135;28;20683;-75
2023/04/10 12:40:19;;;;;;;3.28;3.08;;;13.40;75.00;;;;;;5055676;28;20179;-75
2023/04/10 12:42:44;;;;;;;1.80;1.80;;;13.10;76.10;;;;;;5056643;28;20584;-75
2023/04/10 12:45:12;;;;;;;0.80;0.80;;;12.90;76.10;;;;;;5052552;28;20191;-75
2023/04/10 12:47:50;;;;;;;1.67;1.67;;;12.60;75.50;;;;;;5053933;28;20179;-75
2023/04/10 12:50:17;;;;;;;1.30;1.30;;;12.40;74.10;;;;;;5055053;28;20597;-75
2023/04/10 12:52:45;;;;;;;0.70;0.70;;;12.30;73.00;;;;;;5062709;28;20214;-75
2023/04/10 12:55:14;;;;;;;0.90;0.73;;;12.20;73.20;;;;;;5056929;28;20179;-75
2023/04/10 12:57:45;;;;;;;0.75;0.75;;;12.20;72.60;;;;;;5056224;28;20190;-75